createdAt,value
2019-05-01T00:04:11.065Z,12.52
2019-05-01T00:06:40.847Z,12.48
2019-05-01T00:09:08.299Z,12.42
2019-05-01T00:11:35.743Z,12.30
2019-05-01T00:14:03.188Z,12.13
2019-05-01T00:16:30.676Z,12.12
2019-05-01T00:18:58.284Z,12.05
2019-05-01T00:21:25.736Z,12.02
2019-05-01T00:23:53.192Z,11.98
2019-05-01T00:26:20.642Z,11.75
2019-05-01T00:28:48.150Z,11.60
2019-05-01T00:31:15.603Z,11.63
2019-05-01T00:33:43.080Z,11.65
2019-05-01T00:36:10.518Z,11.52
2019-05-01T00:38:37.966Z,11.56
2019-05-01T00:41:05.514Z,11.53
2019-05-01T00:43:33.017Z,11.57
2019-05-01T00:46:00.478Z,11.53
2019-05-01T00:48:27.931Z,11.45
2019-05-01T00:50:55.371Z,11.45
2019-05-01T00:53:22.814Z,11.53
2019-05-01T00:55:50.705Z,11.58
2019-05-01T00:58:21.171Z,11.57
2019-05-01T01:00:48.634Z,11.54
2019-05-01T01:03:16.086Z,11.41
2019-05-01T01:05:43.600Z,11.46
2019-05-01T01:08:11.051Z,11.36
2019-05-01T01:10:38.544Z,11.23
2019-05-01T01:13:06.023Z,11.32
2019-05-01T01:15:33.487Z,11.27
2019-05-01T01:18:00.942Z,11.25
2019-05-01T01:20:28.383Z,11.18
2019-05-01T01:22:55.838Z,11.20
2019-05-01T01:25:23.328Z,11.14
2019-05-01T01:27:50.782Z,11.13
2019-05-01T01:30:18.243Z,11.17
2019-05-01T01:32:45.714Z,11.21
2019-05-01T01:35:13.194Z,11.24
2019-05-01T01:37:40.644Z,11.16
2019-05-01T01:40:08.167Z,11.18
2019-05-01T01:42:35.616Z,11.19
2019-05-01T01:45:06.557Z,11.22
2019-05-01T01:47:34.028Z,11.17
2019-05-01T01:50:01.588Z,11.14
2019-05-01T01:52:29.334Z,11.16
2019-05-01T01:54:56.928Z,11.14
2019-05-01T01:57:24.367Z,11.20
2019-05-01T01:59:51.856Z,11.17
2019-05-01T02:02:24.955Z,11.05
2019-05-01T02:05:06.918Z,10.89
2019-05-01T02:07:34.363Z,10.71
2019-05-01T02:10:01.818Z,10.74
2019-05-01T02:12:29.267Z,10.66
2019-05-01T02:14:56.712Z,10.72
2019-05-01T02:17:24.188Z,10.70
2019-05-01T02:19:51.634Z,10.65
2019-05-01T02:22:19.080Z,10.60
2019-05-01T02:24:46.095Z,10.53
2019-05-01T02:27:16.617Z,10.58
2019-05-01T02:29:44.076Z,10.49
2019-05-01T02:32:11.540Z,10.47
2019-05-01T02:34:38.992Z,10.41
2019-05-01T02:37:05.979Z,10.29
2019-05-01T02:39:33.423Z,10.29
2019-05-01T02:42:00.427Z,10.34
2019-05-01T02:44:27.419Z,10.30
2019-05-01T02:46:54.449Z,10.34
2019-05-01T02:49:21.445Z,10.43
2019-05-01T02:51:48.488Z,10.34
2019-05-01T02:54:15.468Z,10.40
2019-05-01T02:56:44.071Z,10.44
2019-05-01T02:59:11.067Z,10.43
2019-05-01T03:01:46.950Z,10.38
2019-05-01T03:04:05.194Z,10.34
2019-05-01T03:06:32.216Z,10.25
2019-05-01T03:08:59.248Z,10.18
2019-05-01T03:11:26.248Z,10.17
2019-05-01T03:13:53.251Z,10.21
2019-05-01T03:16:20.251Z,10.22
2019-05-01T03:18:48.847Z,10.10
2019-05-01T03:21:23.517Z,10.13
2019-05-01T03:24:00.476Z,10.10
2019-05-01T03:26:27.464Z,10.06
2019-05-01T03:28:54.459Z,10.01
2019-05-01T03:31:21.472Z,10.03
2019-05-01T03:33:48.515Z,10.09
2019-05-01T03:36:15.509Z,10.17
2019-05-01T03:38:42.499Z,10.22
2019-05-01T03:41:09.509Z,10.13
2019-05-01T03:43:36.510Z,10.05
2019-05-01T03:46:03.590Z,9.99
2019-05-01T03:48:30.603Z,9.89
2019-05-01T03:50:57.599Z,9.84
2019-05-01T03:53:25.155Z,9.79
2019-05-01T03:55:52.692Z,9.89
2019-05-01T03:58:20.201Z,9.95
2019-05-01T04:00:50.315Z,9.89
2019-05-01T04:03:32.669Z,9.86
2019-05-01T04:06:00.112Z,9.87
2019-05-01T04:08:27.559Z,9.81
2019-05-01T04:10:55.005Z,9.80
2019-05-01T04:13:22.465Z,9.76
2019-05-01T04:15:49.939Z,9.72
2019-05-01T04:18:17.394Z,9.68
2019-05-01T04:20:44.832Z,9.75
2019-05-01T04:23:12.282Z,9.83
2019-05-01T04:25:39.739Z,9.89
2019-05-01T04:31:05.057Z,10.24
2019-05-01T04:33:32.567Z,10.08
2019-05-01T04:36:02.097Z,9.94
2019-05-01T04:38:29.562Z,9.97
2019-05-01T04:40:57.018Z,10.00
2019-05-01T04:43:24.463Z,9.99
2019-05-01T04:45:51.916Z,9.94
2019-05-01T04:48:19.512Z,10.04
2019-05-01T04:50:46.970Z,9.94
2019-05-01T04:53:14.457Z,9.98
2019-05-01T04:55:41.925Z,10.04
2019-05-01T04:58:09.374Z,9.92
2019-05-01T05:00:36.828Z,9.84
2019-05-01T05:03:06.865Z,10.01
2019-05-01T05:05:34.311Z,9.94
2019-05-01T05:08:01.769Z,9.98
2019-05-01T05:10:29.240Z,10.10
2019-05-01T05:12:56.700Z,10.24
2019-05-01T05:15:34.253Z,10.28
2019-05-01T05:18:02.209Z,10.23
2019-05-01T05:20:29.653Z,10.34
2019-05-01T05:22:57.106Z,10.47
2019-05-01T05:25:24.592Z,10.57
2019-05-01T05:27:52.039Z,10.67
2019-05-01T05:30:19.503Z,10.78
2019-05-01T05:32:46.954Z,10.84
2019-05-01T05:35:14.396Z,10.88
2019-05-01T05:40:34.895Z,11.14
2019-05-01T05:43:02.371Z,11.18
2019-05-01T05:45:29.821Z,11.21
2019-05-01T05:47:57.279Z,11.20
2019-05-01T05:50:27.540Z,11.31
2019-05-01T05:52:58.609Z,11.44
2019-05-01T05:55:31.592Z,11.44
2019-05-01T05:57:59.047Z,11.39
2019-05-01T06:00:28.218Z,11.40
2019-05-01T06:02:56.650Z,11.42
2019-05-01T06:08:16.834Z,11.80
2019-05-01T06:10:44.290Z,11.82
2019-05-01T06:13:18.003Z,11.75
2019-05-01T06:15:50.594Z,11.79
2019-05-01T06:18:19.497Z,11.73
2019-05-01T06:20:46.987Z,11.87
2019-05-01T06:23:15.666Z,12.02
2019-05-01T06:25:43.456Z,12.04
2019-05-01T06:28:10.931Z,12.05
2019-05-01T06:30:41.998Z,12.17
2019-05-01T06:33:09.325Z,12.24
2019-05-01T06:35:33.983Z,12.35
2019-05-01T06:38:02.314Z,12.56
2019-05-01T06:40:34.281Z,12.72
2019-05-01T06:43:01.784Z,12.93
2019-05-01T06:45:29.339Z,13.06
2019-05-01T06:47:57.263Z,13.19
2019-05-01T06:50:28.130Z,13.20
2019-05-01T06:52:55.586Z,13.27
2019-05-01T06:55:27.181Z,13.34
2019-05-01T06:57:52.590Z,13.49
2019-05-01T07:00:20.112Z,13.71
2019-05-01T07:02:47.560Z,13.73
2019-05-01T07:05:16.502Z,13.64
2019-05-01T07:07:43.233Z,13.85
2019-05-01T07:10:10.568Z,14.00
2019-05-01T07:12:38.073Z,13.90
2019-05-01T07:15:05.534Z,13.87
2019-05-01T07:17:33.117Z,13.97
2019-05-01T07:20:01.155Z,14.09
2019-05-01T07:22:28.667Z,14.25
2019-05-01T07:24:59.020Z,14.44
2019-05-01T07:27:25.094Z,14.53
2019-05-01T07:29:51.239Z,14.53
2019-05-01T07:32:18.720Z,14.54
2019-05-01T07:34:48.879Z,14.65
2019-05-01T07:37:13.860Z,14.60
2019-05-01T07:39:44.806Z,14.38
2019-05-01T07:42:14.313Z,14.06
2019-05-01T07:44:41.787Z,13.84
2019-05-01T07:47:14.902Z,13.93
2019-05-01T07:49:53.154Z,13.81
2019-05-01T07:52:19.998Z,13.83
2019-05-01T07:54:47.450Z,14.09
2019-05-01T07:57:14.920Z,14.26
2019-05-01T07:59:42.416Z,14.18
2019-05-01T08:02:10.020Z,14.21
2019-05-01T08:04:37.546Z,14.44
2019-05-01T08:07:05.047Z,14.61
2019-05-01T08:09:32.506Z,14.73
2019-05-01T08:11:59.969Z,14.82
2019-05-01T08:14:27.427Z,14.85
2019-05-01T08:16:54.978Z,15.00
2019-05-01T08:19:25.135Z,15.10
2019-05-01T08:22:08.231Z,15.23
2019-05-01T08:24:35.734Z,15.32
2019-05-01T08:27:03.195Z,15.35
2019-05-01T08:29:36.978Z,15.46
2019-05-01T08:32:07.726Z,15.49
2019-05-01T08:34:47.856Z,15.60
2019-05-01T08:37:02.761Z,15.69
2019-05-01T08:39:30.218Z,15.80
2019-05-01T08:41:57.676Z,15.92
2019-05-01T08:44:29.564Z,16.07
2019-05-01T08:46:59.283Z,16.10
2019-05-01T08:49:26.770Z,16.10
2019-05-01T08:51:54.226Z,16.13
2019-05-01T08:54:21.691Z,16.14
2019-05-01T08:56:53.133Z,16.24
2019-05-01T08:59:19.333Z,16.43
2019-05-01T09:01:45.869Z,16.48
2019-05-01T09:04:13.089Z,16.63
2019-05-01T09:06:43.425Z,16.63
2019-05-01T09:09:08.240Z,16.67
2019-05-01T09:11:36.200Z,16.73
2019-05-01T09:14:01.649Z,16.67
2019-05-01T09:16:30.246Z,16.63
2019-05-01T09:18:56.604Z,16.77
2019-05-01T09:21:24.055Z,16.81
2019-05-01T09:23:53.156Z,16.86
2019-05-01T09:26:31.335Z,16.95
2019-05-01T09:28:59.260Z,16.96
2019-05-01T09:31:26.747Z,17.04
2019-05-01T09:33:54.215Z,17.22
2019-05-01T09:36:21.666Z,17.31
2019-05-01T09:38:50.083Z,17.33
2019-05-01T09:41:16.675Z,17.41
2019-05-01T09:43:44.151Z,17.52
2019-05-01T09:46:11.619Z,17.65
2019-05-01T09:48:39.321Z,17.77
2019-05-01T09:51:08.173Z,17.88
2019-05-01T09:53:36.024Z,17.95
2019-05-01T09:56:07.696Z,18.01
2019-05-01T09:58:31.098Z,17.80
2019-05-01T10:00:58.568Z,17.38
2019-05-01T10:03:25.566Z,17.21
2019-05-01T10:05:52.585Z,17.33
2019-05-01T10:08:19.587Z,17.42
2019-05-01T10:10:46.601Z,17.53
2019-05-01T10:13:13.702Z,17.59
2019-05-01T10:15:40.841Z,17.78
2019-05-01T10:18:08.291Z,18.12
2019-05-01T10:20:35.750Z,18.42
2019-05-01T10:23:02.816Z,18.50
2019-05-01T10:25:29.804Z,18.66
2019-05-01T10:28:12.740Z,18.96
2019-05-01T10:30:40.609Z,19.09
2019-05-01T10:33:07.625Z,19.31
2019-05-01T10:35:42.612Z,19.53
2019-05-01T10:38:04.716Z,19.69
2019-05-01T10:40:32.378Z,19.72
2019-05-01T10:42:55.736Z,19.71
2019-05-01T10:45:23.036Z,19.93
2019-05-01T10:47:50.086Z,20.15
2019-05-01T10:50:17.104Z,20.27
2019-05-01T10:52:44.097Z,20.37
2019-05-01T10:55:11.119Z,20.55
2019-05-01T10:57:40.229Z,20.67
2019-05-01T11:00:06.743Z,20.82
2019-05-01T11:02:34.262Z,20.96
2019-05-01T11:05:01.971Z,21.06
2019-05-01T11:07:29.524Z,21.20
2019-05-01T11:09:56.623Z,21.17
2019-05-01T11:12:23.660Z,21.19
2019-05-01T11:14:51.110Z,21.29
2019-05-01T11:17:18.558Z,21.49
2019-05-01T11:19:46.014Z,21.64
2019-05-01T11:22:13.563Z,21.92
2019-05-01T11:24:41.085Z,22.06
2019-05-01T11:27:08.550Z,22.02
2019-05-01T11:29:35.998Z,22.13
2019-05-01T11:32:08.959Z,22.31
2019-05-01T11:34:42.178Z,22.55
2019-05-01T11:40:07.475Z,23.12
2019-05-01T11:42:34.952Z,23.04
2019-05-01T11:45:01.956Z,23.21
2019-05-01T11:47:29.013Z,23.50
2019-05-01T11:49:56.482Z,23.65
2019-05-01T11:52:23.974Z,23.72
2019-05-01T11:54:51.502Z,23.72
2019-05-01T11:57:18.953Z,23.89
2019-05-01T11:59:46.416Z,23.97
2019-05-01T12:02:13.877Z,23.97
2019-05-01T12:04:41.379Z,24.16
2019-05-01T12:07:08.882Z,24.34
2019-05-01T12:09:36.334Z,24.40
2019-05-01T12:12:03.795Z,24.45
2019-05-01T12:14:31.329Z,24.57
2019-05-01T12:16:59.351Z,24.80
2019-05-01T12:19:29.479Z,24.91
2019-05-01T12:21:56.954Z,24.98
2019-05-01T12:24:24.410Z,24.86
2019-05-01T12:26:51.908Z,24.86
2019-05-01T12:29:19.436Z,24.88
2019-05-01T12:31:46.927Z,24.85
2019-05-01T12:34:14.374Z,25.04
2019-05-01T12:36:41.841Z,25.17
2019-05-01T12:39:17.206Z,25.11
2019-05-01T12:41:46.580Z,25.12
2019-05-01T12:44:14.024Z,25.13
2019-05-01T12:46:56.257Z,25.05
2019-05-01T12:49:23.757Z,25.16
2019-05-01T12:51:51.255Z,25.20
2019-05-01T12:54:20.674Z,25.38
2019-05-01T12:56:50.029Z,25.46
2019-05-01T12:59:17.526Z,25.65
2019-05-01T13:01:45.034Z,25.58
2019-05-01T13:04:12.508Z,24.92
2019-05-01T13:06:49.098Z,24.35
2019-05-01T13:09:07.451Z,24.35
2019-05-01T13:11:34.919Z,24.84
2019-05-01T13:14:02.372Z,25.18
2019-05-01T13:16:29.848Z,25.24
2019-05-01T13:18:57.314Z,25.33
2019-05-01T13:21:25.220Z,24.85
2019-05-01T13:23:52.678Z,24.55
2019-05-01T13:26:20.156Z,24.42
2019-05-01T13:28:49.050Z,24.44
2019-05-01T13:31:17.991Z,24.24
2019-05-01T13:33:45.458Z,24.22
2019-05-01T13:36:12.927Z,24.06
2019-05-01T13:38:40.416Z,24.54
2019-05-01T13:41:07.878Z,24.21
2019-05-01T13:43:35.329Z,24.18
2019-05-01T13:46:02.785Z,24.52
2019-05-01T13:48:30.255Z,24.96
2019-05-01T13:50:57.744Z,25.31
2019-05-01T13:53:25.202Z,25.70
2019-05-01T13:55:52.327Z,26.08
2019-05-01T13:58:19.373Z,26.36
2019-05-01T14:00:46.420Z,26.46
2019-05-01T14:03:14.926Z,26.66
2019-05-01T14:05:46.079Z,26.65
2019-05-01T14:08:13.242Z,26.68
2019-05-01T14:10:43.712Z,26.70
2019-05-01T14:13:11.134Z,26.59
2019-05-01T14:15:38.558Z,26.44
2019-05-01T14:18:05.768Z,26.35
2019-05-01T14:20:38.387Z,26.34
2019-05-01T14:23:10.091Z,26.26
2019-05-01T14:25:43.028Z,25.69
2019-05-01T14:28:10.559Z,25.13
2019-05-01T14:30:37.582Z,25.14
2019-05-01T14:33:04.570Z,25.48
2019-05-01T14:35:31.603Z,25.68
2019-05-01T14:37:58.592Z,25.66
2019-05-01T14:40:25.599Z,25.60
2019-05-01T14:42:52.636Z,24.94
2019-05-01T14:45:19.939Z,25.21
2019-05-01T14:47:46.936Z,25.53
2019-05-01T14:50:14.089Z,25.90
2019-05-01T14:52:41.217Z,26.04
2019-05-01T14:55:08.259Z,26.05
2019-05-01T14:57:35.221Z,26.11
2019-05-01T15:00:02.219Z,26.25
2019-05-01T15:02:29.234Z,26.25
2019-05-01T15:04:56.206Z,26.14
2019-05-01T15:07:23.215Z,26.09
2019-05-01T15:09:50.719Z,26.07
2019-05-01T15:12:18.228Z,25.97
2019-05-01T15:14:49.316Z,25.80
2019-05-01T15:17:18.770Z,25.73
2019-05-01T15:19:47.943Z,25.64
2019-05-01T15:22:15.418Z,25.61
2019-05-01T15:24:43.083Z,25.54
2019-05-01T15:27:10.543Z,25.59
2019-05-01T15:29:38.390Z,25.73
2019-05-01T15:32:05.863Z,25.67
2019-05-01T15:34:33.331Z,25.62
2019-05-01T15:37:00.811Z,25.41
2019-05-01T15:39:30.220Z,25.35
2019-05-01T15:42:03.279Z,25.31
2019-05-01T15:44:30.744Z,25.20
2019-05-01T15:46:58.320Z,25.15
2019-05-01T15:49:25.783Z,25.15
2019-05-01T15:51:53.234Z,25.54
2019-05-01T15:54:20.681Z,25.52
2019-05-01T15:56:48.172Z,25.24
2019-05-01T15:59:15.660Z,24.97
2019-05-01T16:01:43.113Z,24.82
2019-05-01T16:04:10.578Z,24.64
2019-05-01T16:06:37.607Z,24.47
2019-05-01T16:09:05.223Z,24.34
2019-05-01T16:14:29.601Z,24.28
2019-05-01T16:16:56.613Z,24.22
2019-05-01T16:19:23.619Z,24.16
2019-05-01T16:21:50.639Z,24.12
2019-05-01T16:24:17.652Z,24.09
2019-05-01T16:26:44.645Z,24.03
2019-05-01T16:29:11.639Z,23.96
2019-05-01T16:31:38.644Z,23.85
2019-05-01T16:34:05.631Z,23.69
2019-05-01T16:36:32.848Z,23.54
2019-05-01T16:39:05.844Z,23.45
2019-05-01T16:41:32.909Z,23.39
2019-05-01T16:43:59.929Z,23.33
2019-05-01T16:46:26.932Z,23.23
2019-05-01T16:48:53.971Z,23.11
2019-05-01T16:51:21.077Z,23.05
2019-05-01T16:53:48.058Z,22.96
2019-05-01T16:56:15.054Z,22.94
2019-05-01T16:58:42.135Z,22.93
2019-05-01T17:01:09.130Z,22.87
2019-05-01T17:03:51.006Z,22.84
2019-05-01T17:06:23.236Z,22.69
2019-05-01T17:08:52.805Z,22.62
2019-05-01T17:11:19.802Z,22.63
2019-05-01T17:13:46.795Z,22.61
2019-05-01T17:16:13.785Z,22.56
2019-05-01T17:18:40.782Z,22.46
2019-05-01T17:21:07.784Z,22.37
2019-05-01T17:23:34.775Z,22.29
2019-05-01T17:26:01.791Z,22.22
2019-05-01T17:28:28.777Z,22.14
2019-05-01T17:30:55.822Z,21.99
2019-05-01T17:33:22.844Z,21.84
2019-05-01T17:35:49.845Z,21.67
2019-05-01T17:38:16.858Z,21.49
2019-05-01T17:40:47.361Z,21.35
2019-05-01T17:43:13.517Z,21.22
2019-05-01T17:45:37.970Z,21.07
2019-05-01T17:48:04.951Z,20.91
2019-05-01T17:50:32.414Z,20.72
2019-05-01T17:52:59.880Z,20.55
2019-05-01T17:55:26.974Z,20.41
2019-05-01T17:57:54.788Z,20.31
2019-05-01T18:00:37.424Z,20.21
2019-05-01T18:03:10.022Z,20.06
2019-05-01T18:05:42.323Z,19.93
2019-05-01T18:08:09.959Z,19.87
2019-05-01T18:10:39.704Z,19.78
2019-05-01T18:13:08.082Z,19.60
2019-05-01T18:15:38.702Z,19.41
2019-05-01T18:18:06.182Z,19.22
2019-05-01T18:20:41.452Z,19.19
2019-05-01T18:23:12.524Z,19.15
2019-05-01T18:25:42.126Z,19.10
2019-05-01T18:28:15.181Z,19.04
2019-05-01T18:30:42.822Z,18.99
2019-05-01T18:33:10.313Z,18.98
2019-05-01T18:35:37.788Z,18.98
2019-05-01T18:38:12.775Z,18.91
2019-05-01T18:40:38.608Z,18.88
2019-05-01T18:43:06.076Z,18.84
2019-05-01T18:48:27.189Z,19.05
2019-05-01T18:50:56.309Z,18.91
2019-05-01T18:53:22.387Z,18.79
2019-05-01T18:55:50.184Z,18.63
2019-05-01T18:58:17.844Z,18.53
2019-05-01T19:00:45.306Z,18.45
2019-05-01T19:03:12.815Z,18.45
2019-05-01T19:05:43.112Z,18.40
2019-05-01T19:08:07.820Z,18.36
2019-05-01T19:10:35.275Z,18.29
2019-05-01T19:13:02.758Z,18.12
2019-05-01T19:15:30.359Z,17.97
2019-05-01T19:17:57.833Z,17.87
2019-05-01T19:20:25.369Z,17.78
2019-05-01T19:22:52.826Z,17.78
2019-05-01T19:25:20.364Z,17.72
2019-05-01T19:27:47.873Z,17.73
2019-05-01T19:30:16.825Z,17.64
2019-05-01T19:32:42.822Z,17.50
2019-05-01T19:35:10.339Z,17.41
2019-05-01T19:37:37.817Z,17.34
2019-05-01T19:40:05.462Z,17.42
2019-05-01T19:42:32.918Z,17.53
2019-05-01T19:45:00.376Z,17.62
2019-05-01T19:47:27.936Z,17.65
2019-05-01T19:49:55.420Z,17.48
2019-05-01T19:52:22.970Z,17.35
2019-05-01T19:54:50.466Z,17.21
2019-05-01T19:57:17.926Z,17.01
2019-05-01T19:59:45.387Z,16.82
2019-05-01T20:02:12.889Z,16.82
2019-05-01T20:04:40.377Z,16.89
2019-05-01T20:07:10.543Z,16.96
2019-05-01T20:09:35.449Z,17.04
2019-05-01T20:12:02.887Z,17.01
2019-05-01T20:14:30.339Z,16.92
2019-05-01T20:16:57.868Z,16.83
2019-05-01T20:19:25.334Z,16.85
2019-05-01T20:21:52.843Z,16.88
2019-05-01T20:24:20.388Z,16.89
2019-05-01T20:26:49.827Z,16.77
2019-05-01T20:29:17.760Z,16.66
2019-05-01T20:31:45.733Z,16.61
2019-05-01T20:34:17.365Z,16.54
2019-05-01T20:36:39.739Z,16.45
2019-05-01T20:39:07.183Z,16.41
2019-05-01T20:41:34.644Z,16.39
2019-05-01T20:44:02.187Z,16.43
2019-05-01T20:46:29.767Z,16.49
2019-05-01T20:49:01.334Z,16.48
2019-05-01T20:51:25.637Z,16.31
2019-05-01T20:53:53.194Z,16.17
2019-05-01T20:56:23.565Z,16.05
2019-05-01T20:58:51.040Z,15.90
2019-05-01T21:01:18.495Z,15.86
2019-05-01T21:03:52.506Z,15.80
2019-05-01T21:06:19.041Z,15.82
2019-05-01T21:08:48.755Z,15.88
2019-05-01T21:11:16.620Z,15.84
2019-05-01T21:13:44.096Z,15.74
2019-05-01T21:16:11.760Z,15.79
2019-05-01T21:18:39.212Z,15.84
2019-05-01T21:21:06.680Z,15.84
2019-05-01T21:23:34.163Z,15.79
2019-05-01T21:26:03.733Z,15.78
2019-05-01T21:28:29.184Z,15.76
2019-05-01T21:30:56.629Z,15.77
2019-05-01T21:33:24.114Z,15.69
2019-05-01T21:35:53.307Z,15.56
2019-05-01T21:38:19.081Z,15.57
2019-05-01T21:40:46.584Z,15.55
2019-05-01T21:43:14.043Z,15.53
2019-05-01T21:45:43.237Z,15.57
2019-05-01T21:48:09.142Z,15.57
2019-05-01T21:50:36.611Z,15.54
2019-05-01T21:53:06.842Z,15.44
2019-05-01T21:55:32.081Z,15.42
2019-05-01T21:57:59.040Z,15.45
2019-05-01T22:00:26.546Z,15.43
2019-05-01T22:02:54.067Z,15.34
2019-05-01T22:05:21.538Z,15.14
2019-05-01T22:07:48.992Z,14.98
2019-05-01T22:10:16.469Z,14.80
2019-05-01T22:12:48.512Z,14.68
2019-05-01T22:15:14.117Z,14.57
2019-05-01T22:17:45.158Z,14.54
2019-05-01T22:20:13.083Z,14.51
2019-05-01T22:22:50.487Z,14.55
2019-05-01T22:25:20.399Z,14.53
2019-05-01T22:27:47.839Z,14.51
2019-05-01T22:30:20.820Z,14.52
2019-05-01T22:32:50.819Z,14.50
2019-05-01T22:35:18.260Z,14.53
2019-05-01T22:37:45.735Z,14.52
2019-05-01T22:40:13.203Z,14.42
2019-05-01T22:42:40.651Z,14.39
2019-05-01T22:45:08.115Z,14.47
2019-05-01T22:47:35.618Z,14.49
2019-05-01T22:50:03.094Z,14.50
2019-05-01T22:52:30.552Z,14.49
2019-05-01T22:54:57.990Z,14.37
2019-05-01T22:57:25.451Z,14.28
2019-05-01T22:59:52.944Z,14.26
2019-05-01T23:02:24.129Z,14.19
2019-05-01T23:04:52.049Z,14.15
2019-05-01T23:07:18.595Z,14.07
2019-05-01T23:09:44.886Z,14.07
2019-05-01T23:12:12.543Z,14.09
2019-05-01T23:14:40.326Z,14.08
2019-05-01T23:17:09.496Z,14.03
2019-05-01T23:19:37.129Z,14.01
2019-05-01T23:22:04.696Z,14.02
2019-05-01T23:24:32.204Z,14.01
2019-05-01T23:26:59.681Z,13.93
2019-05-01T23:29:27.177Z,13.79
2019-05-01T23:31:54.677Z,13.84
2019-05-01T23:34:26.248Z,13.89
2019-05-01T23:36:49.615Z,13.88
2019-05-01T23:39:17.073Z,13.82
2019-05-01T23:41:46.788Z,13.68
2019-05-01T23:44:12.018Z,13.67
2019-05-01T23:46:39.477Z,13.63
2019-05-01T23:49:06.943Z,13.69
2019-05-01T23:51:34.410Z,13.66
2019-05-01T23:54:01.865Z,13.59
2019-05-01T23:56:31.117Z,13.45
2019-05-01T23:58:56.797Z,13.40
